• Join FlightAware (Why Join?)
  • Login
  • US Flag 
02:35PM EDT


 

Airport Tracker/Info


-or-


 

Live Flight TrackerFlight Track Log ✈ CSN3104 ✈ 22-Apr-2013 ✈ ZBAA / PEK - ZGGG / CAN

Flight Track Log - Related Links

Times and Time Zones

All times are in EDT time to prevent confusion due to time zone crossing. See the CSN3104 flight status page for this flight to view local times or setup timezone preferences in your user account.

Time Position Orientation Groundspeed Altitude Reporting Facility
EDT Latitude Longitude Course Direction KTS MPH feet Rate Location/Type
04:33AM 39.9621 116.5563 190° South  Level Estimated
04:34AM 39.8441 116.5281 190° South  Level Estimated
04:35AM 39.7261 116.5000 190° South  Level Estimated
04:36AM 39.6081 116.4719 190° South  Level Estimated
04:37AM 39.4901 116.4440 190° South  Level Estimated
04:38AM 39.3720 116.4162 190° South  Level Estimated
04:39AM 39.2540 116.3885 190° South  Level Estimated
04:40AM 39.1360 116.3609 190° South  Level Estimated
04:41AM 39.0179 116.3333 190° South  Level Estimated
04:42AM 38.8999 116.3059 190° South  Level Estimated
04:43AM 38.7818 116.2785 190° South  Level Estimated
04:44AM 38.6637 116.2513 190° South  Level Estimated
04:45AM 38.5457 116.2241 190° South  Level Estimated
04:46AM 38.4276 116.1970 190° South  Level Estimated
04:47AM 38.3095 116.1700 190° South  Level Estimated
04:48AM 38.1914 116.1431 190° South  Level Estimated
04:49AM 38.0733 116.1163 190° South  Level Estimated
04:50AM 37.9552 116.0895 190° South  Level Estimated
04:51AM 37.8371 116.0629 190° South  Level Estimated
04:52AM 37.7190 116.0363 190° South  Level Estimated
04:53AM 37.6009 116.0099 190° South  Level Estimated
04:54AM 37.4827 115.9835 190° South  Level Estimated
04:55AM 37.3646 115.9572 190° South  Level Estimated
04:56AM 37.2465 115.9309 190° South  Level Estimated
04:57AM 37.1283 115.9048 190° South  Level Estimated
04:58AM 37.0102 115.8787 190° South  Level Estimated
04:59AM 36.8920 115.8527 190° South  Level Estimated
05:00AM 36.7738 115.8268 190° South  Level Estimated
05:01AM 36.6557 115.8010 190° South  Level Estimated
05:02AM 36.5375 115.7753 190° South  Level Estimated
05:03AM 36.4193 115.7496 190° South  Level Estimated
05:04AM 36.3011 115.7240 190° South  Level Estimated
05:05AM 36.1829 115.6985 190° South  Level Estimated
05:06AM 36.0648 115.6730 190° South  Level Estimated
05:07AM 35.9465 115.6477 190° South  Level Estimated
05:08AM 35.8283 115.6224 190° South  Level Estimated
05:09AM 35.7101 115.5972 190° South  Level Estimated
05:10AM 35.5919 115.5721 190° South  Level Estimated
05:11AM 35.4737 115.5470 190° South  Level Estimated
05:12AM 35.3555 115.5220 190° South  Level Estimated
05:13AM 35.2372 115.4971 190° South  Level Estimated
05:14AM 35.1190 115.4723 190° South  Level Estimated
05:15AM 35.0008 115.4475 190° South  Level Estimated
05:16AM 34.8825 115.4228 190° South  Level Estimated
05:17AM 34.7643 115.3982 190° South  Level Estimated
05:18AM 34.6460 115.3736 190° South  Level Estimated
05:19AM 34.5277 115.3491 190° South  Level Estimated
05:20AM 34.4095 115.3247 190° South  Level Estimated
05:21AM 34.2912 115.3004 190° South  Level Estimated
05:22AM 34.1729 115.2761 190° South  Level Estimated
05:23AM 34.0546 115.2519 190° South  Level Estimated
05:24AM 33.9363 115.2277 190° South  Level Estimated
05:25AM 33.8181 115.2037 190° South  Level Estimated
05:26AM 33.6997 115.1796 190° South  Level Estimated
05:27AM 33.5815 115.1557 190° South  Level Estimated
05:28AM 33.4632 115.1318 190° South  Level Estimated
05:29AM 33.3448 115.1080 190° South  Level Estimated
05:30AM 33.2265 115.0843 190° South  Level Estimated
05:31AM 33.1082 115.0606 190° South  Level Estimated
05:32AM 32.9899 115.0370 190° South  Level Estimated
05:33AM 32.8716 115.0134 189° South  Level Estimated
05:34AM 32.7532 114.9899 189° South  Level Estimated
05:35AM 32.6349 114.9665 189° South  Level Estimated
05:36AM 32.5165 114.9431 189° South  Level Estimated
05:37AM 32.3982 114.9198 189° South  Level Estimated
05:38AM 32.2799 114.8966 189° South  Level Estimated
05:39AM 32.1615 114.8734 189° South  Level Estimated
05:40AM 32.0432 114.8502 189° South  Level Estimated
05:41AM 31.9248 114.8272 189° South  Level Estimated
05:42AM 31.8064 114.8042 189° South  Level Estimated
05:43AM 31.6880 114.7812 189° South  Level Estimated
05:44AM 31.5697 114.7583 189° South  Level Estimated
05:45AM 31.4513 114.7355 189° South  Level Estimated
05:46AM 31.3329 114.7127 189° South  Level Estimated
05:47AM 31.2145 114.6900 189° South  Level Estimated
05:48AM 31.0961 114.6673 189° South  Level Estimated
05:49AM 30.9778 114.6447 189° South  Level Estimated
05:50AM 30.8594 114.6222 189° South  Level Estimated
05:51AM 30.7409 114.5997 189° South  Level Estimated
05:52AM 30.6225 114.5773 189° South  Level Estimated
05:53AM 30.5041 114.5549 189° South  Level Estimated
05:54AM 30.3857 114.5325 189° South  Level Estimated
05:55AM 30.2673 114.5103 189° South  Level Estimated
05:56AM 30.1489 114.4881 189° South  Level Estimated
05:57AM 30.0305 114.4659 189° South  Level Estimated
05:58AM 29.9120 114.4438 189° South  Level Estimated
05:59AM 29.7936 114.4217 189° South  Level Estimated
06:00AM 29.6752 114.3997 189° South  Level Estimated
06:01AM 29.5567 114.3777 189° South  Level Estimated
06:02AM 29.4383 114.3558 189° South  Level Estimated
06:03AM 29.3198 114.3340 189° South  Level Estimated
06:04AM 29.2014 114.3122 189° South  Level Estimated
06:05AM 29.0829 114.2904 189° South  Level Estimated
06:06AM 28.9645 114.2687 189° South  Level Estimated
06:07AM 28.8460 114.2471 189° South  Level Estimated
06:08AM 28.7276 114.2255 189° South  Level Estimated
06:09AM 28.6091 114.2039 189° South  Level Estimated
06:10AM 28.4906 114.1824 189° South  Level Estimated
06:11AM 28.3721 114.1610 189° South  Level Estimated
06:12AM 28.2537 114.1395 189° South  Level Estimated
06:13AM 28.1352 114.1182 189° South  Level Estimated
06:14AM 28.0167 114.0969 189° South  Level Estimated
06:15AM 27.8982 114.0756 189° South  Level Estimated
06:16AM 27.7797 114.0544 189° South  Level Estimated
06:17AM 27.6612 114.0332 189° South  Level Estimated
06:18AM 27.5427 114.0121 189° South  Level Estimated
06:19AM 27.4242 113.9910 189° South  Level Estimated
06:20AM 27.3057 113.9699 189° South  Level Estimated
06:21AM 27.1872 113.9489 189° South  Level Estimated
06:22AM 27.0687 113.9280 189° South  Level Estimated
06:23AM 26.9502 113.9071 189° South  Level Estimated
06:24AM 26.8317 113.8862 189° South  Level Estimated
06:25AM 26.7132 113.8654 189° South  Level Estimated
06:26AM 26.5946 113.8446 189° South  Level Estimated
06:27AM 26.4761 113.8239 189° South  Level Estimated
06:28AM 26.3576 113.8032 189° South  Level Estimated
06:29AM 26.2390 113.7825 189° South  Level Estimated
06:30AM 26.1205 113.7619 189° South  Level Estimated
06:31AM 26.0020 113.7414 189° South  Level Estimated
06:32AM 25.8834 113.7209 189° South  Level Estimated
06:33AM 25.7649 113.7004 189° South  Level Estimated
06:34AM 25.6464 113.6799 189° South  Level Estimated
06:35AM 25.5278 113.6595 189° South  Level Estimated
06:36AM 25.4093 113.6392 189° South  Level Estimated
06:37AM 25.2907 113.6189 189° South  Level Estimated
06:38AM 25.1721 113.5986 189° South  Level Estimated
06:39AM 25.0536 113.5783 189° South  Level Estimated
06:39AM 24.3320 113.7010 189° South 378 435 14,400  Level FlightAware
06:40AM 24.9350 113.5581 189° South  Level Estimated
06:40AM 24.2630 113.6940 185° South 369 425 13,800  Level FlightAware
06:40AM 24.1880 113.6860 186° South 365 420 13,800 -120 Level FlightAware
06:41AM 24.1170 113.6660 194° South 361 415 13,700 -360 Descending FlightAware
06:42AM 24.0390 113.6380 198° South 360 414 13,300 -1,020 Descending FlightAware
06:43AM 23.9670 113.6100 200° South 351 404 12,100 -1,380 Descending FlightAware
06:43AM 23.9080 113.5880 199° South 350 403 11,400 -960 Descending FlightAware
06:44AM 23.8360 113.5600 200° South 349 402 10,800 -480 Descending FlightAware
06:45AM 23.7760 113.5380 199° South 327 376 10,800  Level FlightAware
06:46AM 23.7160 113.5180 197° South 285 328 10,800  Level FlightAware
06:46AM 23.6680 113.5050 194° South 261 300 10,800  Level FlightAware
06:47AM 23.6200 113.4920 194° South 259 298 10,800  Level FlightAware
06:48AM 23.5690 113.4780 194° South 242 278 10,800 -300 Level FlightAware
06:48AM 23.5260 113.4660 194° South 225 259 10,400 -780 Descending FlightAware
06:49AM 23.4860 113.4560 193° South 222 255 9,800 -960 Descending FlightAware
06:50AM 23.4550 113.4470 195° South 219 252 9,300 -1,020 Descending FlightAware
06:50AM 23.4330 113.4410 194° South 217 250 8,900 -1,140 Descending FlightAware
06:50AM 23.4020 113.4330 193° South 216 249 8,300 -1,020 Descending FlightAware
06:51AM 23.3730 113.4250 194° South 213 245 7,900 -840 Descending FlightAware
06:51AM 23.3610 113.4220 193° South 211 243 7,700 -900 Descending FlightAware
06:52AM 23.3350 113.4150 194° South 207 238 7,300 -1,020 Descending FlightAware
06:52AM 23.3080 113.4080 193° South 205 236 6,800 -960 Descending FlightAware
06:52AM 23.2950 113.4040 196° South 202 232 6,600 -780 Descending FlightAware
06:53AM 23.2720 113.3980 193° South 194 223 6,300 -900 Descending FlightAware
06:53AM 23.2470 113.3910 194° South 193 222 5,800 -1,020 Descending FlightAware
06:54AM 23.2240 113.3850 193° South 191 220 5,400 -1,080 Descending FlightAware
06:54AM 23.2100 113.3820 191° South 193 222 5,100 -960 Descending FlightAware
06:54AM 23.1860 113.3750 195° South 187 215 4,700 -1,020 Descending FlightAware
06:55AM 23.1640 113.3650 203° Southwest 189 217 4,200 -1,200 Descending FlightAware
06:55AM 23.1600 113.3520 251° West 201 231 3,900 -1,200 Descending FlightAware
06:55AM 23.1620 113.3370 278° West 213 245 3,600 -1,440 Descending FlightAware
06:56AM 23.1670 113.3220 290° West 224 258 3,200 -900 Descending FlightAware
06:56AM 23.1770 113.2940 291° West 211 243 3,000 -480 Descending FlightAware
06:56AM 23.1840 113.2820 302° West 207 238 2,900 -600 Descending FlightAware
06:57AM 23.1950 113.2760 333° Northwest 205 236 2,700 -540 Descending FlightAware
06:57AM 23.2250 113.2680 346° North 198 228 2,500 -360 Descending FlightAware
06:57AM 23.2270 113.2680 360° North 197 227 2,500 -180 Level FlightAware
06:58AM 23.2570 113.2730 North 167 192 2,400 -600 Descending FlightAware
06:58AM 23.2800 113.2800 16° North 161 185 1,900 -900 Descending FlightAware
06:59AM 23.2950 113.2840 14° North 156 180 1,600 -480 Descending FlightAware
06:59AM 23.3220 113.2910 13° North 150 173 1,400 -300 Descending FlightAware
07:02AM 23.3924 113.2988 North  Level Estimated
07:03AM 23.3924 113.2988 223° Southwest  Level Estimated
07:04AM 23.3924 113.2988 223° Southwest  Level Estimated
07:05AM 23.3924 113.2988 223° Southwest  Level Estimated
07:06AM 23.3924 113.2988 223° Southwest  Level Estimated
07:07AM 23.3924 113.2988 223° Southwest  Level Estimated
07:08AM 23.3924 113.2988 223° Southwest  Level Estimated
07:09AM 23.3924 113.2988 223° Southwest  Level Estimated
07:10AM 23.3924 113.2988 223° Southwest  Level Estimated
07:11AM 23.3924 113.2988 223° Southwest  Level Estimated
07:12AM 23.3924 113.2988 223° Southwest  Level Estimated
07:13AM 23.3924 113.2988 223° Southwest  Level Estimated
07:14AM 23.3924 113.2988 223° Southwest  Level Estimated